createdAt,value
2022-10-04T00:01:05.758Z,99261.59
2022-10-04T00:03:38.475Z,99288.00
2022-10-04T00:06:15.211Z,99276.81
2022-10-04T00:08:51.241Z,99274.88
2022-10-04T00:11:24.893Z,99270.97
2022-10-04T00:14:01.497Z,99278.63
2022-10-04T00:16:33.054Z,99273.59
2022-10-04T00:19:22.299Z,99287.22
2022-10-04T00:21:52.576Z,99289.50
2022-10-04T00:24:27.886Z,99271.16
2022-10-04T00:27:11.998Z,99289.16
2022-10-04T00:29:44.815Z,99288.84
2022-10-04T00:32:11.969Z,99286.56
2022-10-04T00:34:48.276Z,99284.63
2022-10-04T00:37:18.482Z,99289.34
2022-10-04T00:40:11.027Z,99291.28
2022-10-04T00:42:56.603Z,99286.41
2022-10-04T00:45:34.290Z,99285.47
2022-10-04T00:48:04.888Z,99282.22
2022-10-04T00:50:52.492Z,99285.63
2022-10-04T00:53:30.347Z,99279.16
2022-10-04T00:56:01.687Z,99279.97
2022-10-04T00:58:36.518Z,99282.03
2022-10-04T01:01:04.772Z,99287.41
2022-10-04T01:03:43.078Z,99274.59
2022-10-04T01:06:11.813Z,99282.03
2022-10-04T01:08:46.678Z,99280.09
2022-10-04T01:11:19.509Z,99283.03
2022-10-04T01:14:04.707Z,99270.03
2022-10-04T01:16:37.239Z,99275.53
2022-10-04T01:19:22.500Z,99286.59
2022-10-04T01:22:00.201Z,99291.63
2022-10-04T01:24:34.973Z,99290.16
2022-10-04T01:27:02.697Z,99289.66
2022-10-04T01:29:31.902Z,99285.28
2022-10-04T01:32:01.050Z,99293.53
2022-10-04T01:34:30.644Z,99286.06
2022-10-04T01:37:01.400Z,99295.63
2022-10-04T01:39:29.102Z,99288.00
2022-10-04T01:42:14.544Z,99299.69
2022-10-04T01:44:48.724Z,99279.56
2022-10-04T01:47:41.954Z,99298.22
2022-10-04T01:50:23.249Z,99299.34
2022-10-04T01:52:56.172Z,99287.69
2022-10-04T01:55:30.794Z,99291.25
2022-10-04T01:58:13.479Z,99277.31
2022-10-04T02:00:55.755Z,99285.09
2022-10-04T02:03:36.060Z,99277.16
2022-10-04T02:06:07.497Z,99290.59
2022-10-04T02:08:40.222Z,99302.78
2022-10-04T02:11:07.664Z,99292.53
2022-10-04T02:13:40.292Z,99295.16
2022-10-04T02:16:12.088Z,99301.16
2022-10-04T02:18:43.701Z,99298.56
2022-10-04T02:21:12.212Z,99297.75
2022-10-04T02:23:41.229Z,99300.84
2022-10-04T02:26:10.261Z,99300.81
2022-10-04T02:28:38.774Z,99306.66
2022-10-04T02:31:26.701Z,99300.16
2022-10-04T02:33:58.655Z,99310.22
2022-10-04T02:36:29.049Z,99317.19
2022-10-04T02:39:22.483Z,99317.34
2022-10-04T02:41:55.950Z,99326.88
2022-10-04T02:44:30.571Z,99323.31
2022-10-04T02:47:14.286Z,99301.59
2022-10-04T02:49:52.775Z,99314.06
2022-10-04T02:52:42.500Z,99328.50
2022-10-04T02:55:39.327Z,99336.13
2022-10-04T02:58:11.030Z,99329.94
2022-10-04T03:00:50.419Z,99334.16
2022-10-04T03:03:25.851Z,99335.16
2022-10-04T03:06:13.188Z,99331.91
2022-10-04T03:08:43.461Z,99334.81
2022-10-04T03:11:14.113Z,99331.41
2022-10-04T03:13:44.665Z,99336.75
2022-10-04T03:16:12.715Z,99337.41
2022-10-04T03:18:40.515Z,99327.06
2022-10-04T03:21:11.509Z,99332.09
2022-10-04T03:23:40.001Z,99339.19
2022-10-04T03:26:13.110Z,99335.44
2022-10-04T03:28:43.576Z,99325.03
2022-10-04T03:31:14.158Z,99332.50
2022-10-04T03:33:43.609Z,99336.88
2022-10-04T03:36:16.915Z,99333.13
2022-10-04T03:38:47.210Z,99340.75
2022-10-04T03:41:17.049Z,99346.44
2022-10-04T03:43:52.472Z,99352.75
2022-10-04T03:46:23.479Z,99338.00
2022-10-04T03:48:53.643Z,99331.19
2022-10-04T03:51:24.075Z,99348.72
2022-10-04T03:54:02.811Z,99347.91
2022-10-04T03:56:36.909Z,99349.03
2022-10-04T03:59:08.160Z,99353.38
2022-10-04T04:01:38.900Z,99371.34
2022-10-04T04:04:06.089Z,99367.44
2022-10-04T04:06:51.816Z,99369.25
2022-10-04T04:09:34.310Z,99371.00
2022-10-04T04:12:11.994Z,99370.88
2022-10-04T04:14:41.221Z,99379.28
2022-10-04T04:17:27.354Z,99381.72
2022-10-04T04:20:02.257Z,99388.28
2022-10-04T04:22:32.757Z,99386.53
2022-10-04T04:25:03.142Z,99381.84
2022-10-04T04:27:36.897Z,99387.47
2022-10-04T04:30:06.415Z,99389.25
2022-10-04T04:32:48.753Z,99391.53
2022-10-04T04:35:37.049Z,99389.44
2022-10-04T04:38:06.114Z,99407.31
2022-10-04T04:40:34.190Z,99406.31
2022-10-04T04:43:02.961Z,99414.50
2022-10-04T04:45:32.616Z,99414.97
2022-10-04T04:48:04.577Z,99412.59
2022-10-04T04:50:35.899Z,99418.28
2022-10-04T04:53:23.793Z,99424.09
2022-10-04T04:56:03.764Z,99422.50
2022-10-04T04:58:41.816Z,99430.31
2022-10-04T05:01:31.410Z,99424.53
2022-10-04T05:04:14.808Z,99433.94
2022-10-04T05:07:01.211Z,99433.19
2022-10-04T05:09:34.387Z,99421.47
2022-10-04T05:12:18.064Z,99430.13
2022-10-04T05:14:49.769Z,99436.13
2022-10-04T05:17:35.023Z,99448.59
2022-10-04T05:20:04.751Z,99448.44
2022-10-04T05:22:33.126Z,99444.41
2022-10-04T05:25:05.649Z,99457.09
2022-10-04T05:27:35.926Z,99465.50
2022-10-04T05:30:10.794Z,99451.53
2022-10-04T05:32:58.282Z,99465.00
2022-10-04T05:35:28.655Z,99460.97
2022-10-04T05:38:19.902Z,99467.78
2022-10-04T05:41:05.870Z,99470.22
2022-10-04T05:43:38.048Z,99463.41
2022-10-04T05:46:25.881Z,99481.59
2022-10-04T05:48:55.530Z,99465.69
2022-10-04T05:51:27.038Z,99461.31
2022-10-04T05:53:59.789Z,99462.78
2022-10-04T05:56:42.186Z,99477.06
2022-10-04T05:59:38.442Z,99469.28
2022-10-04T06:02:44.453Z,99448.66
2022-10-04T06:05:28.790Z,99477.56
2022-10-04T06:08:25.723Z,99483.59
2022-10-04T06:11:18.589Z,99492.19
2022-10-04T06:13:54.231Z,99500.81
2022-10-04T06:16:36.680Z,99509.56
2022-10-04T06:19:29.248Z,99508.59
2022-10-04T06:22:08.614Z,99520.44
2022-10-04T06:24:40.322Z,99526.78
2022-10-04T06:27:31.627Z,99534.91
2022-10-04T06:30:06.568Z,99543.34
2022-10-04T06:33:14.746Z,99555.22
2022-10-04T06:35:53.791Z,99549.69
2022-10-04T06:38:35.320Z,99543.03
2022-10-04T06:41:08.406Z,99537.84
2022-10-04T06:44:00.378Z,99554.41
2022-10-04T06:46:59.896Z,99552.78
2022-10-04T06:49:55.326Z,99557.63
2022-10-04T06:53:00.687Z,99540.09
2022-10-04T06:55:40.359Z,99553.06
2022-10-04T06:58:35.653Z,99560.38
2022-10-04T07:01:05.968Z,99566.84
2022-10-04T07:03:53.318Z,99572.97
2022-10-04T07:06:31.719Z,99578.00
2022-10-04T07:09:06.888Z,99572.50
2022-10-04T07:11:56.860Z,99582.25
2022-10-04T07:14:43.947Z,99576.06
2022-10-04T07:17:21.268Z,99586.63
2022-10-04T07:19:52.391Z,99576.38
2022-10-04T07:22:27.022Z,99581.38
2022-10-04T07:25:12.924Z,99571.19
2022-10-04T07:28:14.386Z,99577.19
2022-10-04T07:31:17.395Z,99584.94
2022-10-04T07:33:50.246Z,99581.13
2022-10-04T07:36:25.673Z,99594.06
2022-10-04T07:39:10.693Z,99582.44
2022-10-04T07:41:50.435Z,99584.31
2022-10-04T07:44:34.809Z,99576.13
2022-10-04T07:47:27.460Z,99596.63
2022-10-04T07:49:55.642Z,99588.38
2022-10-04T07:52:29.988Z,99588.84
2022-10-04T07:54:57.714Z,99597.69
2022-10-04T07:57:33.967Z,99594.19
2022-10-04T08:00:19.354Z,99590.47
2022-10-04T08:03:11.104Z,99591.88
2022-10-04T08:05:43.175Z,99597.72
2022-10-04T08:08:29.817Z,99601.50
2022-10-04T08:11:33.864Z,99599.53
2022-10-04T08:14:05.070Z,99602.84
2022-10-04T08:16:37.517Z,99598.66
2022-10-04T08:19:26.173Z,99599.41
2022-10-04T08:22:18.499Z,99599.72
2022-10-04T08:25:21.479Z,99595.47
2022-10-04T08:28:18.277Z,99597.06
2022-10-04T08:31:26.727Z,99606.88
2022-10-04T08:34:12.049Z,99594.44
2022-10-04T08:37:16.925Z,99600.94
2022-10-04T08:40:14.985Z,99609.78
2022-10-04T08:43:04.911Z,99609.72
2022-10-04T08:45:59.238Z,99609.41
2022-10-04T08:48:59.713Z,99601.59
2022-10-04T08:52:05.941Z,99608.38
2022-10-04T08:54:35.638Z,99608.41
2022-10-04T08:57:16.085Z,99616.72
2022-10-04T09:00:20.903Z,99611.50
2022-10-04T09:03:05.223Z,99612.94
2022-10-04T09:05:56.433Z,99615.59
2022-10-04T09:08:30.200Z,99623.31
2022-10-04T09:11:22.836Z,99623.00
2022-10-04T09:14:18.896Z,99617.31
2022-10-04T09:16:49.033Z,99612.94
2022-10-04T09:19:46.721Z,99606.88
2022-10-04T09:22:39.348Z,99623.47
2022-10-04T09:25:35.094Z,99627.03
2022-10-04T09:28:10.206Z,99629.00
2022-10-04T09:30:53.281Z,99618.91
2022-10-04T09:33:46.694Z,99620.31
2022-10-04T09:37:03.888Z,99621.59
2022-10-04T09:40:06.756Z,99626.44
2022-10-04T09:42:45.938Z,99618.00
2022-10-04T09:45:35.186Z,99627.38
2022-10-04T09:48:08.579Z,99630.38
2022-10-04T09:51:13.602Z,99631.00
2022-10-04T09:53:55.133Z,99640.00
2022-10-04T09:56:45.725Z,99633.97
2022-10-04T09:59:27.008Z,99634.50
2022-10-04T10:02:01.946Z,99636.06
2022-10-04T10:05:07.336Z,99634.16
2022-10-04T10:07:55.071Z,99638.50
2022-10-04T10:10:59.240Z,99630.97
2022-10-04T10:14:02.854Z,99630.03
2022-10-04T10:16:53.553Z,99636.59
2022-10-04T10:19:47.250Z,99640.38
2022-10-04T10:23:01.918Z,99630.53
2022-10-04T10:25:47.441Z,99636.94
2022-10-04T10:28:46.321Z,99626.91
2022-10-04T10:31:32.366Z,99627.59
2022-10-04T10:34:19.686Z,99627.25
2022-10-04T10:36:53.851Z,99628.69
2022-10-04T10:39:54.947Z,99639.19
2022-10-04T10:42:28.067Z,99631.91
2022-10-04T10:45:17.153Z,99635.72
2022-10-04T10:48:11.164Z,99628.53
2022-10-04T10:51:03.451Z,99632.53
2022-10-04T10:53:52.745Z,99641.16
2022-10-04T10:56:50.748Z,99640.84
2022-10-04T10:59:58.094Z,99645.41
2022-10-04T11:02:49.533Z,99637.06
2022-10-04T11:05:48.271Z,99637.31
2022-10-04T11:08:34.522Z,99637.03
2022-10-04T11:11:45.110Z,99624.47
2022-10-04T11:14:59.560Z,99615.66
2022-10-04T11:17:57.535Z,99619.28
2022-10-04T11:21:12.906Z,99621.28
2022-10-04T11:24:34.995Z,99619.94
2022-10-04T11:27:20.912Z,99635.41
2022-10-04T11:30:14.170Z,99629.56
2022-10-04T11:32:50.834Z,99631.44
2022-10-04T11:35:41.568Z,99631.84
2022-10-04T11:38:15.066Z,99635.00
2022-10-04T11:41:07.598Z,99626.63
2022-10-04T11:43:46.823Z,99633.09
2022-10-04T11:46:43.813Z,99636.91
2022-10-04T11:49:45.321Z,99635.84
2022-10-04T11:52:49.643Z,99640.88
2022-10-04T11:55:37.997Z,99624.06
2022-10-04T11:58:38.850Z,99629.28
2022-10-04T12:01:15.061Z,99644.22
2022-10-04T12:04:14.541Z,99642.50
2022-10-04T12:07:03.505Z,99591.88
2022-10-04T12:09:43.136Z,99649.84
2022-10-04T12:12:38.335Z,99650.69
2022-10-04T12:15:30.501Z,99657.31
2022-10-04T12:18:17.950Z,99660.75
2022-10-04T12:20:56.955Z,99655.69
2022-10-04T12:23:33.143Z,99660.47
2022-10-04T12:26:59.942Z,99658.59
2022-10-04T12:29:45.398Z,99654.63
2022-10-04T12:32:27.593Z,99648.63
2022-10-04T12:35:14.309Z,99650.69
2022-10-04T12:37:49.986Z,99651.41
2022-10-04T12:40:26.713Z,99648.78
2022-10-04T12:43:38.471Z,99650.91
2022-10-04T12:46:21.447Z,99665.03
2022-10-04T12:49:04.291Z,99662.09
2022-10-04T12:51:42.719Z,99657.22
2022-10-04T12:54:19.357Z,99661.00
2022-10-04T12:56:59.578Z,99667.41
2022-10-04T12:59:47.715Z,99669.03
2022-10-04T13:02:36.168Z,99666.22
2022-10-04T13:05:22.874Z,99671.34
2022-10-04T13:08:06.124Z,99667.84
2022-10-04T13:11:06.382Z,99668.69
2022-10-04T13:13:37.465Z,99669.59
2022-10-04T13:19:28.000Z,99672.19
2022-10-04T13:22:44.053Z,99667.59
2022-10-04T13:25:30.851Z,99656.41
2022-10-04T13:28:25.438Z,99666.13
2022-10-04T13:31:22.670Z,99658.44
2022-10-04T13:34:09.592Z,99662.75
2022-10-04T13:37:13.971Z,99665.16
2022-10-04T13:39:47.206Z,99673.56
2022-10-04T13:42:23.727Z,99669.63
2022-10-04T13:45:17.873Z,99673.69
2022-10-04T13:47:47.962Z,99664.81
2022-10-04T13:50:15.189Z,99676.16
2022-10-04T13:53:26.837Z,99675.44
2022-10-04T13:56:40.743Z,99671.03
2022-10-04T13:59:16.798Z,99658.78
2022-10-04T14:02:03.210Z,99665.97
2022-10-04T14:04:51.976Z,99669.03
2022-10-04T14:07:30.894Z,99674.22
2022-10-04T14:10:10.514Z,99677.44
2022-10-04T14:12:50.609Z,99684.63
2022-10-04T14:15:36.749Z,99694.97
2022-10-04T14:18:45.566Z,99686.88
2022-10-04T14:21:37.940Z,99690.13
2022-10-04T14:24:24.283Z,99691.41
2022-10-04T14:27:21.451Z,99700.94
2022-10-04T14:30:01.609Z,99691.63
2022-10-04T14:32:46.230Z,99693.63
2022-10-04T14:35:26.496Z,99685.44
2022-10-04T14:38:09.047Z,99698.88
2022-10-04T14:40:57.907Z,99698.69
2022-10-04T14:43:38.119Z,99695.78
2022-10-04T14:46:11.806Z,99702.31
2022-10-04T14:48:58.306Z,99701.72
2022-10-04T14:51:32.353Z,99706.91
2022-10-04T14:54:18.480Z,99704.50
2022-10-04T14:57:01.861Z,99721.44
2022-10-04T14:59:55.515Z,99727.13
2022-10-04T15:02:52.750Z,99710.94
2022-10-04T15:05:31.191Z,99730.06
2022-10-04T15:08:26.511Z,99730.41
2022-10-04T15:10:58.009Z,99735.53
2022-10-04T15:13:35.445Z,99739.25
2022-10-04T15:16:14.461Z,99729.19
2022-10-04T15:18:41.886Z,99740.66
2022-10-04T15:21:32.540Z,99737.16
2022-10-04T15:24:24.222Z,99735.31
2022-10-04T15:27:17.067Z,99742.09
2022-10-04T15:30:10.469Z,99746.41
2022-10-04T15:32:42.709Z,99754.75
2022-10-04T15:35:25.348Z,99753.94
2022-10-04T15:38:29.610Z,99746.19
2022-10-04T15:41:03.136Z,99750.22
2022-10-04T15:43:44.096Z,99749.28
2022-10-04T15:46:39.316Z,99753.06
2022-10-04T15:49:32.162Z,99768.59
2022-10-04T15:52:27.909Z,99771.72
2022-10-04T15:55:31.157Z,99777.63
2022-10-04T15:58:25.509Z,99776.69
2022-10-04T16:01:02.678Z,99787.66
2022-10-04T16:03:48.606Z,99782.88
2022-10-04T16:06:27.977Z,99791.91
2022-10-04T16:09:14.300Z,99793.97
2022-10-04T16:12:20.212Z,99803.66
2022-10-04T16:15:14.431Z,99808.75
2022-10-04T16:18:09.618Z,99810.44
2022-10-04T16:20:39.650Z,99810.31
2022-10-04T16:23:25.871Z,99808.91
2022-10-04T16:25:56.538Z,99805.38
2022-10-04T16:28:35.552Z,99825.47
2022-10-04T16:31:44.300Z,99829.78
2022-10-04T16:34:42.421Z,99833.63
2022-10-04T16:37:15.422Z,99838.09
2022-10-04T16:40:00.829Z,99837.00
2022-10-04T16:43:03.915Z,99847.78
2022-10-04T16:46:10.109Z,99843.28
2022-10-04T16:48:49.099Z,99837.16
2022-10-04T16:51:16.774Z,99852.34
2022-10-04T16:54:05.255Z,99857.91
2022-10-04T16:57:00.634Z,99865.50
2022-10-04T16:59:37.129Z,99871.03
2022-10-04T17:02:25.860Z,99868.78
2022-10-04T17:05:02.318Z,99868.78
2022-10-04T17:07:36.751Z,99876.28
2022-10-04T17:10:38.354Z,99866.16
2022-10-04T17:13:36.552Z,99880.66
2022-10-04T17:16:14.171Z,99884.91
2022-10-04T17:19:03.572Z,99890.25
2022-10-04T17:21:46.260Z,99901.97
2022-10-04T17:24:31.961Z,99899.41
2022-10-04T17:27:34.243Z,99899.25
2022-10-04T17:30:16.670Z,99912.75
2022-10-04T17:33:16.246Z,99905.91
2022-10-04T17:35:52.360Z,99902.81
2022-10-04T17:38:35.301Z,99923.63
2022-10-04T17:41:35.708Z,99919.53
2022-10-04T17:44:19.113Z,99911.88
2022-10-04T17:46:55.751Z,99923.25
2022-10-04T17:49:47.841Z,99920.31
2022-10-04T17:52:48.127Z,99931.50
2022-10-04T17:55:24.232Z,99933.75
2022-10-04T17:58:17.740Z,99941.69
2022-10-04T18:00:52.403Z,99943.97
2022-10-04T18:03:24.962Z,99945.09
2022-10-04T18:05:57.120Z,99946.72
2022-10-04T18:08:39.590Z,99954.25
2022-10-04T18:11:15.345Z,99949.88
2022-10-04T18:14:00.999Z,99948.41
2022-10-04T18:16:59.228Z,99956.41
2022-10-04T18:19:51.202Z,99958.16
2022-10-04T18:22:20.705Z,99929.13
2022-10-04T18:25:02.107Z,99963.69
2022-10-04T18:27:31.256Z,99965.00
2022-10-04T18:30:14.306Z,99962.88
2022-10-04T18:32:50.181Z,99970.81
2022-10-04T18:35:28.358Z,99970.31
2022-10-04T18:38:28.409Z,99971.59
2022-10-04T18:41:19.396Z,99961.34
2022-10-04T18:44:06.836Z,99974.97
2022-10-04T18:46:41.853Z,99978.56
2022-10-04T18:49:21.182Z,99989.63
2022-10-04T18:51:51.167Z,100002.00
2022-10-04T18:54:46.534Z,99997.91
2022-10-04T19:01:17.784Z,100003.31
2022-10-04T19:03:45.116Z,100002.31
2022-10-04T19:06:24.876Z,100011.75
2022-10-04T19:09:17.134Z,100015.31
2022-10-04T19:12:05.016Z,100006.88
2022-10-04T19:14:38.138Z,100008.00
2022-10-04T19:17:24.293Z,100019.88
2022-10-04T19:20:03.360Z,100023.91
2022-10-04T19:23:13.481Z,100020.03
2022-10-04T19:26:09.991Z,100025.19
2022-10-04T19:28:36.105Z,100028.56
2022-10-04T19:31:28.078Z,100038.50
2022-10-04T19:34:09.155Z,100019.88
2022-10-04T19:36:56.921Z,100031.97
2022-10-04T19:39:51.800Z,100036.94
2022-10-04T19:42:47.475Z,100028.28
2022-10-04T19:45:33.669Z,100029.03
2022-10-04T19:48:07.156Z,100026.53
2022-10-04T19:50:45.179Z,100032.06
2022-10-04T19:53:18.490Z,100035.63
2022-10-04T19:55:56.046Z,100034.50
2022-10-04T19:58:36.834Z,100039.31
2022-10-04T20:01:11.659Z,100027.91
2022-10-04T20:03:39.760Z,100031.78
2022-10-04T20:06:07.524Z,100042.72
2022-10-04T20:09:02.237Z,100048.25
2022-10-04T20:11:52.060Z,100033.03
2022-10-04T20:14:23.422Z,100048.25
2022-10-04T20:17:02.729Z,100051.81
2022-10-04T20:19:30.243Z,100057.53
2022-10-04T20:22:30.540Z,100061.41
2022-10-04T20:24:59.409Z,100063.56
2022-10-04T20:27:30.485Z,100074.50
2022-10-04T20:30:04.060Z,100069.09
2022-10-04T20:32:34.243Z,100083.28
2022-10-04T20:35:06.167Z,100078.88
2022-10-04T20:37:45.482Z,100084.41
2022-10-04T20:40:24.778Z,100089.94
2022-10-04T20:43:13.411Z,100096.41
2022-10-04T20:45:55.183Z,100099.47
2022-10-04T20:48:31.474Z,100094.88
2022-10-04T20:51:08.969Z,100099.78
2022-10-04T20:53:42.783Z,100094.25
2022-10-04T20:56:26.828Z,100103.88
2022-10-04T20:59:02.147Z,100102.84
2022-10-04T21:01:36.886Z,100102.22
2022-10-04T21:04:29.827Z,100109.28
2022-10-04T21:06:59.488Z,100099.97
2022-10-04T21:09:28.061Z,100103.44
2022-10-04T21:11:56.344Z,100110.47
2022-10-04T21:14:28.961Z,100113.56
2022-10-04T21:17:02.345Z,100116.75
2022-10-04T21:19:32.902Z,100120.22
2022-10-04T21:22:08.406Z,100105.25
2022-10-04T21:24:50.682Z,100126.34
2022-10-04T21:27:30.035Z,100125.22
2022-10-04T21:29:58.673Z,100121.44
2022-10-04T21:32:27.130Z,100128.09
2022-10-04T21:34:54.831Z,100113.16
2022-10-04T21:37:23.004Z,100122.06
2022-10-04T21:39:50.227Z,100120.31
2022-10-04T21:42:17.795Z,100119.44
2022-10-04T21:44:45.010Z,100128.34
2022-10-04T21:47:12.432Z,100129.97
2022-10-04T21:49:39.956Z,100127.81
2022-10-04T21:52:08.156Z,100115.88
2022-10-04T21:54:35.546Z,100124.03
2022-10-04T21:57:02.853Z,100117.41
2022-10-04T21:59:30.139Z,100127.78
2022-10-04T22:01:57.495Z,100132.91
2022-10-04T22:04:24.996Z,100130.13
2022-10-04T22:06:52.127Z,100129.13
2022-10-04T22:09:19.585Z,100135.25
2022-10-04T22:11:46.657Z,100141.91
2022-10-04T22:14:13.922Z,100140.38
2022-10-04T22:16:41.138Z,100148.13
2022-10-04T22:19:09.009Z,100139.56
2022-10-04T22:21:36.516Z,100140.88
2022-10-04T22:24:04.644Z,100119.09
2022-10-04T22:26:32.496Z,100143.63
2022-10-04T22:28:59.534Z,100139.03
2022-10-04T22:31:28.680Z,100137.09
2022-10-04T22:33:56.553Z,100140.38
2022-10-04T22:36:38.350Z,100143.84
2022-10-04T22:39:08.383Z,100151.81
2022-10-04T22:41:40.722Z,100139.25
2022-10-04T22:44:20.343Z,100138.94
2022-10-04T22:46:59.542Z,100153.53
2022-10-04T22:49:30.640Z,100148.94
2022-10-04T22:51:59.722Z,100143.44
2022-10-04T22:54:32.498Z,100147.31
2022-10-04T22:57:00.310Z,100155.69
2022-10-04T22:59:35.346Z,100155.91
2022-10-04T23:02:10.835Z,100146.69
2022-10-04T23:04:45.067Z,100154.06
2022-10-04T23:07:12.357Z,100145.28
2022-10-04T23:09:39.495Z,100135.16
2022-10-04T23:12:08.737Z,100133.00
2022-10-04T23:14:40.415Z,100147.72
2022-10-04T23:17:22.372Z,100149.97
2022-10-04T23:19:52.418Z,100143.53
2022-10-04T23:22:26.142Z,100149.34
2022-10-04T23:24:54.225Z,100147.09
2022-10-04T23:27:21.841Z,100157.94
2022-10-04T23:29:58.996Z,100158.25
2022-10-04T23:32:27.057Z,100122.47
2022-10-04T23:34:56.963Z,100158.25
2022-10-04T23:37:31.574Z,100158.56
2022-10-04T23:39:59.314Z,100151.81
2022-10-04T23:42:31.790Z,100166.94
2022-10-04T23:45:00.330Z,100162.97
2022-10-04T23:47:36.199Z,100172.66
2022-10-04T23:50:20.256Z,100156.31
2022-10-04T23:52:48.330Z,100168.66
2022-10-04T23:55:22.346Z,100170.81
2022-10-04T23:57:50.932Z,100175.13
